createdAt,value
2022-11-08T00:00:19.918Z,96375.22
2022-11-08T00:03:22.071Z,96351.97
2022-11-08T00:06:43.010Z,96324.66
2022-11-08T00:10:03.739Z,96328.66
2022-11-08T00:13:25.380Z,96337.59
2022-11-08T00:16:28.559Z,96338.75
2022-11-08T00:19:30.605Z,96331.88
2022-11-08T00:22:32.695Z,96318.66
2022-11-08T00:25:34.823Z,96325.03
2022-11-08T00:28:36.986Z,96311.06
2022-11-08T00:31:39.061Z,96295.06
2022-11-08T00:34:41.179Z,96314.47
2022-11-08T00:37:43.225Z,96291.38
2022-11-08T00:40:45.305Z,96272.72
2022-11-08T00:43:47.351Z,96282.25
2022-11-08T00:46:49.734Z,96277.63
2022-11-08T00:49:51.824Z,96293.16
2022-11-08T00:52:53.880Z,96270.19
2022-11-08T00:56:10.071Z,96279.72
2022-11-08T00:59:13.394Z,96258.81
2022-11-08T01:02:15.592Z,96267.75
2022-11-08T01:05:17.742Z,96262.44
2022-11-08T01:08:21.806Z,96250.19
2022-11-08T01:11:25.447Z,96268.94
2022-11-08T01:14:27.581Z,96265.88
2022-11-08T01:17:29.759Z,96259.44
2022-11-08T01:20:32.045Z,96257.38
2022-11-08T01:23:34.512Z,96256.88
2022-11-08T01:26:36.556Z,96248.91
2022-11-08T01:29:38.616Z,96257.38
2022-11-08T01:32:40.663Z,96261.38
2022-11-08T01:35:45.176Z,96259.91
2022-11-08T01:38:47.499Z,96256.47
2022-11-08T01:41:49.550Z,96248.44
2022-11-08T01:45:09.102Z,96277.16
2022-11-08T01:48:11.533Z,96276.19
2022-11-08T01:51:14.485Z,96298.94
2022-11-08T01:54:28.260Z,96316.16
2022-11-08T01:57:42.231Z,96310.16
2022-11-08T02:00:44.445Z,96288.41
2022-11-08T02:03:47.308Z,96300.75
2022-11-08T02:06:49.400Z,96301.41
2022-11-08T02:09:51.437Z,96307.47
2022-11-08T02:12:53.993Z,96299.09
2022-11-08T02:15:56.204Z,96303.41
2022-11-08T02:18:58.285Z,96296.31
2022-11-08T02:22:02.209Z,96303.63
2022-11-08T02:25:04.622Z,96312.63
2022-11-08T02:28:06.847Z,96312.34
2022-11-08T02:31:10.974Z,96323.28
2022-11-08T02:34:13.028Z,96334.63
2022-11-08T02:37:16.725Z,96342.03
2022-11-08T02:40:18.752Z,96349.72
2022-11-08T02:43:21.244Z,96334.69
2022-11-08T02:46:23.345Z,96339.66
2022-11-08T02:49:25.458Z,96346.31
2022-11-08T02:52:27.533Z,96342.50
2022-11-08T02:55:29.883Z,96330.50
2022-11-08T02:58:31.969Z,96326.00
2022-11-08T03:01:34.134Z,96330.34
2022-11-08T03:04:36.279Z,96321.00
2022-11-08T03:07:39.081Z,96320.31
2022-11-08T03:10:41.189Z,96326.41
2022-11-08T03:13:43.224Z,96323.78
2022-11-08T03:16:45.274Z,96330.84
2022-11-08T03:19:47.378Z,96318.19
2022-11-08T03:22:49.408Z,96322.50
2022-11-08T03:25:51.502Z,96308.47
2022-11-08T03:28:53.545Z,96310.44
2022-11-08T03:31:55.622Z,96300.41
2022-11-08T03:34:59.661Z,96291.88
2022-11-08T03:38:01.734Z,96281.97
2022-11-08T03:41:03.844Z,96271.59
2022-11-08T03:44:06.186Z,96262.28
2022-11-08T03:47:09.099Z,96273.72
2022-11-08T03:50:11.711Z,96281.78
2022-11-08T03:53:13.764Z,96290.22
2022-11-08T03:56:16.491Z,96293.94
2022-11-08T03:59:18.529Z,96300.72
2022-11-08T04:02:20.685Z,96291.00
2022-11-08T04:05:22.747Z,96301.22
2022-11-08T04:08:24.822Z,96307.38
2022-11-08T04:11:45.649Z,96295.22
2022-11-08T04:15:06.071Z,96300.22
2022-11-08T04:18:26.801Z,96307.56
2022-11-08T04:21:28.920Z,96305.97
2022-11-08T04:24:31.077Z,96302.94
2022-11-08T04:27:33.152Z,96305.59
2022-11-08T04:30:35.335Z,96308.25
2022-11-08T04:33:37.463Z,96311.84
2022-11-08T04:36:39.584Z,96310.28
2022-11-08T04:39:41.775Z,96314.28
2022-11-08T04:42:46.983Z,96323.75
2022-11-08T04:45:49.112Z,96323.22
2022-11-08T04:48:53.110Z,96326.84
2022-11-08T04:51:55.234Z,96334.88
2022-11-08T04:54:57.300Z,96331.69
2022-11-08T04:57:59.458Z,96332.22
2022-11-08T05:01:02.640Z,96334.28
2022-11-08T05:04:04.987Z,96319.81
2022-11-08T05:07:12.080Z,96323.38
2022-11-08T05:10:14.258Z,96330.81
2022-11-08T05:13:16.351Z,96328.03
2022-11-08T05:16:29.253Z,96329.19
2022-11-08T05:19:49.776Z,96325.47
2022-11-08T05:23:15.216Z,96324.03
2022-11-08T05:26:18.275Z,96328.34
2022-11-08T05:29:20.370Z,96326.03
2022-11-08T05:32:22.428Z,96332.78
2022-11-08T05:35:24.562Z,96333.81
2022-11-08T05:38:26.626Z,96327.97
2022-11-08T05:41:28.721Z,96339.25
2022-11-08T05:44:30.780Z,96336.84
2022-11-08T05:47:32.885Z,96330.03
2022-11-08T05:50:35.290Z,96339.41
2022-11-08T05:53:48.645Z,96343.72
2022-11-08T05:56:51.069Z,96344.28
2022-11-08T05:59:53.218Z,96345.94
2022-11-08T06:02:55.376Z,96348.63
2022-11-08T06:06:12.611Z,96348.97
2022-11-08T06:09:14.697Z,96341.91
2022-11-08T06:12:16.748Z,96353.41
2022-11-08T06:15:18.874Z,96349.41
2022-11-08T06:18:20.934Z,96353.13
2022-11-08T06:21:23.795Z,96350.97
2022-11-08T06:24:25.943Z,96345.25
2022-11-08T06:27:28.124Z,96344.47
2022-11-08T06:30:30.212Z,96344.47
2022-11-08T06:33:32.602Z,96344.19
2022-11-08T06:36:34.649Z,96339.66
2022-11-08T06:39:36.730Z,96350.56
2022-11-08T06:42:38.833Z,96344.84
2022-11-08T06:45:40.917Z,96347.50
2022-11-08T06:48:42.978Z,96357.25
2022-11-08T06:51:44.995Z,96348.22
2022-11-08T06:54:47.041Z,96352.72
2022-11-08T06:57:49.217Z,96356.28
2022-11-08T07:00:51.276Z,96359.19
2022-11-08T07:03:53.313Z,96364.69
2022-11-08T07:06:56.928Z,96361.72
2022-11-08T07:10:03.621Z,96351.97
2022-11-08T07:13:11.409Z,96343.94
2022-11-08T07:16:13.805Z,96343.31
2022-11-08T07:19:15.914Z,96354.84
2022-11-08T07:22:17.942Z,96349.75
2022-11-08T07:25:25.442Z,96349.59
2022-11-08T07:28:27.506Z,96361.00
2022-11-08T07:31:29.597Z,96360.06
2022-11-08T07:34:32.283Z,96362.50
2022-11-08T07:37:34.334Z,96353.53
2022-11-08T07:40:36.375Z,96357.63
2022-11-08T07:43:38.456Z,96365.09
2022-11-08T07:46:51.202Z,96349.66
2022-11-08T07:49:53.258Z,96360.06
2022-11-08T07:52:55.342Z,96358.47
2022-11-08T07:55:58.435Z,96359.69
2022-11-08T07:59:00.710Z,96363.78
2022-11-08T08:02:03.103Z,96364.34
2022-11-08T08:05:05.609Z,96365.53
2022-11-08T08:08:07.811Z,96359.41
2022-11-08T08:11:10.036Z,96371.91
2022-11-08T08:14:12.091Z,96364.91
2022-11-08T08:17:14.250Z,96369.28
2022-11-08T08:20:16.316Z,96369.06
2022-11-08T08:23:18.700Z,96369.50
2022-11-08T08:26:21.041Z,96378.50
2022-11-08T08:29:23.107Z,96381.47
2022-11-08T08:32:28.239Z,96373.47
2022-11-08T08:35:37.245Z,96374.44
2022-11-08T08:38:44.347Z,96373.59
2022-11-08T08:41:46.830Z,96363.41
2022-11-08T08:44:48.917Z,96365.28
2022-11-08T08:47:55.171Z,96362.97
2022-11-08T08:50:57.471Z,96368.94
2022-11-08T08:53:59.540Z,96364.53
2022-11-08T08:57:01.615Z,96364.88
2022-11-08T09:03:26.599Z,96359.41
2022-11-08T09:06:28.673Z,96355.72
2022-11-08T09:09:30.757Z,96349.91
2022-11-08T09:12:33.207Z,96346.19
2022-11-08T09:15:35.270Z,96348.47
2022-11-08T09:18:37.350Z,96345.72
2022-11-08T09:21:39.445Z,96339.31
2022-11-08T09:24:41.503Z,96342.34
2022-11-08T09:27:43.524Z,96334.41
2022-11-08T09:30:45.549Z,96336.59
2022-11-08T09:33:49.709Z,96332.59
2022-11-08T09:36:51.801Z,96323.78
2022-11-08T09:39:54.058Z,96320.59
2022-11-08T09:43:26.074Z,96321.41
2022-11-08T09:46:57.537Z,96310.88
2022-11-08T09:50:20.124Z,96298.47
2022-11-08T09:53:34.804Z,96288.84
2022-11-08T09:56:37.994Z,96301.78
2022-11-08T09:59:52.831Z,96298.44
2022-11-08T10:02:54.976Z,96299.34
2022-11-08T10:06:11.648Z,96307.13
2022-11-08T10:09:19.661Z,96306.84
2022-11-08T10:12:32.792Z,96313.59
2022-11-08T10:15:41.702Z,96321.50
2022-11-08T10:19:34.962Z,96310.16
2022-11-08T10:23:15.544Z,96306.34
2022-11-08T10:26:26.898Z,96304.28
2022-11-08T10:29:37.706Z,96304.53
2022-11-08T10:32:39.745Z,96295.53
2022-11-08T10:35:51.061Z,96295.13
2022-11-08T10:39:08.989Z,96302.56
2022-11-08T10:42:50.401Z,96296.41
2022-11-08T10:45:52.549Z,96305.81
2022-11-08T10:48:56.845Z,96306.81
2022-11-08T10:52:01.576Z,96279.53
2022-11-08T10:55:06.637Z,96278.28
2022-11-08T10:58:31.921Z,96266.31
2022-11-08T11:01:34.025Z,96273.09
2022-11-08T11:04:36.125Z,96269.53
2022-11-08T11:07:39.230Z,96261.50
2022-11-08T11:10:48.241Z,96258.16
2022-11-08T11:14:18.130Z,96250.16
2022-11-08T11:17:32.928Z,96240.81
2022-11-08T11:20:37.736Z,96237.69
2022-11-08T11:23:54.246Z,96212.75
2022-11-08T11:27:19.481Z,96222.19
2022-11-08T11:30:33.890Z,96218.78
2022-11-08T11:33:43.005Z,96222.69
2022-11-08T11:37:07.248Z,96235.47
2022-11-08T11:40:27.487Z,96224.81
2022-11-08T11:44:28.490Z,96237.63
2022-11-08T11:47:41.195Z,96224.72
2022-11-08T11:50:48.233Z,96227.66
2022-11-08T11:53:50.385Z,96234.34
2022-11-08T11:57:08.515Z,96238.59
2022-11-08T12:00:14.986Z,96240.75
2022-11-08T12:03:51.314Z,96224.41
2022-11-08T12:07:33.171Z,96224.81
2022-11-08T12:10:45.878Z,96210.56
2022-11-08T12:14:10.874Z,96221.84
2022-11-08T12:17:28.270Z,96214.34
2022-11-08T12:20:55.023Z,96199.78
2022-11-08T12:24:30.628Z,96208.44
2022-11-08T12:28:04.979Z,96215.38
2022-11-08T12:31:35.486Z,96220.84
2022-11-08T12:34:52.746Z,96211.25
2022-11-08T12:38:12.029Z,96210.84
2022-11-08T12:41:42.371Z,96189.97
2022-11-08T12:45:12.093Z,96187.63
2022-11-08T12:48:23.039Z,96193.44
2022-11-08T12:52:09.147Z,96176.44
2022-11-08T12:55:30.257Z,96167.34
2022-11-08T12:59:01.741Z,96147.59
2022-11-08T13:02:04.062Z,96152.09
2022-11-08T13:05:13.422Z,96161.41
2022-11-08T13:08:22.136Z,96144.59
2022-11-08T13:11:50.248Z,96147.03
2022-11-08T13:14:52.339Z,96145.25
2022-11-08T13:18:06.450Z,96128.00
2022-11-08T13:21:34.326Z,96119.50
2022-11-08T13:24:45.333Z,96113.00
2022-11-08T13:27:48.494Z,96109.94
2022-11-08T13:31:00.001Z,96115.44
2022-11-08T13:34:20.572Z,96121.81
2022-11-08T13:37:42.001Z,96118.84
2022-11-08T13:41:24.439Z,96112.63
2022-11-08T13:45:00.121Z,96110.66
2022-11-08T13:48:26.099Z,96107.94
2022-11-08T13:51:33.489Z,96110.38
2022-11-08T13:54:48.886Z,96109.31
2022-11-08T13:58:00.113Z,96107.63
2022-11-08T14:01:04.841Z,96108.63
2022-11-08T14:04:40.311Z,96122.75
2022-11-08T14:07:48.257Z,96110.47
2022-11-08T14:11:19.155Z,96102.00
2022-11-08T14:14:39.189Z,96099.34
2022-11-08T14:18:01.798Z,96098.63
2022-11-08T14:21:04.328Z,96108.22
2022-11-08T14:24:12.166Z,96153.56
2022-11-08T14:27:14.869Z,96157.69
2022-11-08T14:30:21.691Z,96154.38
2022-11-08T14:33:26.245Z,96149.31
2022-11-08T14:36:30.223Z,96137.41
2022-11-08T14:39:34.780Z,96137.63
2022-11-08T14:42:36.853Z,96135.78
2022-11-08T14:45:39.291Z,96136.25
2022-11-08T14:49:28.081Z,96133.00
2022-11-08T14:52:31.737Z,96126.94
2022-11-08T14:55:33.871Z,96127.84
2022-11-08T14:58:35.935Z,96133.78
2022-11-08T15:01:38.094Z,96139.59
2022-11-08T15:04:40.597Z,96145.84
2022-11-08T15:07:42.654Z,96143.88
2022-11-08T15:10:57.170Z,96136.41
2022-11-08T15:14:07.056Z,96140.28
2022-11-08T15:17:38.608Z,96135.28
2022-11-08T15:20:53.106Z,96128.50
2022-11-08T15:24:14.836Z,96121.59
2022-11-08T15:27:17.058Z,96120.94
2022-11-08T15:30:26.988Z,96118.91
2022-11-08T15:33:40.850Z,96122.72
2022-11-08T15:36:42.945Z,96123.94
2022-11-08T15:39:46.080Z,96116.81
2022-11-08T15:42:50.699Z,96118.78
2022-11-08T15:45:53.583Z,96123.53
2022-11-08T15:48:57.919Z,96126.16
2022-11-08T15:51:59.969Z,96129.09
2022-11-08T15:55:02.002Z,96139.19
2022-11-08T15:58:04.740Z,96136.03
2022-11-08T16:01:07.023Z,96133.91
2022-11-08T16:04:14.946Z,96139.28
2022-11-08T16:07:17.099Z,96135.75
2022-11-08T16:10:36.894Z,96139.97
2022-11-08T16:13:39.083Z,96134.66
2022-11-08T16:16:41.170Z,96142.13
2022-11-08T16:19:43.201Z,96144.38
2022-11-08T16:22:45.668Z,96139.59
2022-11-08T16:25:55.292Z,96156.25
2022-11-08T16:28:57.487Z,96143.41
2022-11-08T16:31:59.560Z,96135.97
2022-11-08T16:35:01.610Z,96127.16
2022-11-08T16:38:03.634Z,96132.44
2022-11-08T16:41:06.078Z,96122.81
2022-11-08T16:44:08.527Z,96114.47
2022-11-08T16:47:12.774Z,96115.78
2022-11-08T16:50:18.852Z,96113.72
2022-11-08T16:53:21.529Z,96116.13
2022-11-08T16:56:23.730Z,96109.50
2022-11-08T16:59:25.778Z,96109.41
2022-11-08T17:02:31.651Z,96126.31
2022-11-08T17:05:34.536Z,96107.06
2022-11-08T17:08:37.921Z,96113.50
2022-11-08T17:11:45.682Z,96124.41
2022-11-08T17:14:48.593Z,96129.22
2022-11-08T17:17:53.203Z,96139.66
2022-11-08T17:21:11.374Z,96135.34
2022-11-08T17:24:24.818Z,96124.31
2022-11-08T17:27:27.439Z,96117.16
2022-11-08T17:30:34.318Z,96119.16
2022-11-08T17:33:38.632Z,96119.91
2022-11-08T17:36:41.062Z,96111.81
2022-11-08T17:39:43.591Z,96122.44
2022-11-08T17:42:46.579Z,96129.22
2022-11-08T17:45:50.443Z,96115.59
2022-11-08T17:48:52.519Z,96114.59
2022-11-08T17:51:54.634Z,96100.59
2022-11-08T17:54:56.842Z,96105.63
2022-11-08T17:57:58.947Z,96104.53
2022-11-08T18:01:02.941Z,96113.94
2022-11-08T18:04:05.220Z,96100.22
2022-11-08T18:07:07.547Z,96106.13
2022-11-08T18:10:10.012Z,96108.06
2022-11-08T18:13:12.253Z,96123.81
2022-11-08T18:16:19.645Z,96131.53
2022-11-08T18:19:21.830Z,96126.88
2022-11-08T18:22:23.975Z,96138.88
2022-11-08T18:25:26.053Z,96144.72
2022-11-08T18:28:28.217Z,96146.06
2022-11-08T18:31:30.715Z,96124.81
2022-11-08T18:34:32.773Z,96125.13
2022-11-08T18:37:34.833Z,96118.72
2022-11-08T18:40:36.883Z,96117.66
2022-11-08T18:43:38.966Z,96123.78
2022-11-08T18:46:43.403Z,96129.63
2022-11-08T18:49:45.839Z,96129.50
2022-11-08T18:52:48.338Z,96128.63
2022-11-08T18:55:50.610Z,96123.94
2022-11-08T18:58:54.434Z,96151.09
2022-11-08T19:01:56.548Z,96131.56
2022-11-08T19:04:59.210Z,96130.31
2022-11-08T19:08:01.303Z,96136.81
2022-11-08T19:11:08.019Z,96148.63
2022-11-08T19:14:10.189Z,96149.22
2022-11-08T19:17:14.644Z,96149.63
2022-11-08T19:20:16.887Z,96164.16
2022-11-08T19:23:21.450Z,96166.44
2022-11-08T19:26:25.562Z,96178.25
2022-11-08T19:29:27.700Z,96170.53
2022-11-08T19:32:29.742Z,96164.59
2022-11-08T19:35:31.807Z,96173.78
2022-11-08T19:38:35.314Z,96177.72
2022-11-08T19:41:38.049Z,96193.06
2022-11-08T19:44:40.301Z,96187.50
2022-11-08T19:47:43.691Z,96196.81
2022-11-08T19:50:45.794Z,96201.53
2022-11-08T19:53:48.309Z,96217.59
2022-11-08T19:57:04.783Z,96229.25
2022-11-08T20:00:10.313Z,96224.81
2022-11-08T20:03:14.332Z,96233.13
2022-11-08T20:06:18.837Z,96238.72
2022-11-08T20:09:22.694Z,96240.09
2022-11-08T20:12:31.454Z,96241.09
2022-11-08T20:15:33.515Z,96249.75
2022-11-08T20:18:35.554Z,96241.00
2022-11-08T20:21:42.290Z,96254.34
2022-11-08T20:24:44.401Z,96262.44
2022-11-08T20:27:46.457Z,96261.88
2022-11-08T20:30:48.487Z,96260.88
2022-11-08T20:33:53.143Z,96271.53
2022-11-08T20:36:55.382Z,96266.44
2022-11-08T20:39:57.433Z,96270.94
2022-11-08T20:42:59.476Z,96267.28
2022-11-08T20:46:05.964Z,96278.97
2022-11-08T20:49:08.117Z,96267.03
2022-11-08T20:52:10.213Z,96262.38
2022-11-08T20:55:12.418Z,96270.81
2022-11-08T20:58:14.444Z,96271.47
2022-11-08T21:01:19.290Z,96283.38
2022-11-08T21:04:21.441Z,96276.66
2022-11-08T21:10:47.808Z,96282.72
2022-11-08T21:13:52.538Z,96290.31
2022-11-08T21:20:16.889Z,96284.03
2022-11-08T21:23:19.387Z,96294.16
2022-11-08T21:26:21.634Z,96292.19
2022-11-08T21:29:23.685Z,96308.03
2022-11-08T21:32:25.729Z,96305.34
2022-11-08T21:35:27.850Z,96299.88
2022-11-08T21:38:29.961Z,96295.53
2022-11-08T21:41:32.021Z,96299.53
2022-11-08T21:44:34.069Z,96298.91
2022-11-08T21:47:36.225Z,96303.44
2022-11-08T21:50:38.572Z,96312.41
2022-11-08T21:53:49.396Z,96310.84
2022-11-08T21:56:54.836Z,96323.53
2022-11-08T21:59:56.985Z,96310.47
2022-11-08T22:02:59.490Z,96321.31
2022-11-08T22:06:01.637Z,96320.25
2022-11-08T22:09:03.934Z,96311.03
2022-11-08T22:12:06.301Z,96316.38
2022-11-08T22:15:09.417Z,96322.97
2022-11-08T22:18:16.286Z,96331.63
2022-11-08T22:21:41.053Z,96324.78
2022-11-08T22:24:44.608Z,96327.47
2022-11-08T22:27:46.831Z,96336.41
2022-11-08T22:30:52.441Z,96320.97
2022-11-08T22:33:54.564Z,96336.28
2022-11-08T22:36:56.795Z,96344.56
2022-11-08T22:39:59.058Z,96341.13
2022-11-08T22:43:01.258Z,96340.56
2022-11-08T22:46:03.460Z,96342.63
2022-11-08T22:49:05.699Z,96344.63
2022-11-08T22:52:07.805Z,96341.63
2022-11-08T22:55:10.123Z,96351.34
2022-11-08T22:58:12.796Z,96346.38
2022-11-08T23:01:15.343Z,96349.44
2022-11-08T23:04:17.637Z,96354.00
2022-11-08T23:07:19.820Z,96344.00
2022-11-08T23:10:22.420Z,96362.13
2022-11-08T23:13:43.387Z,96370.94
2022-11-08T23:16:45.854Z,96387.00
2022-11-08T23:20:06.773Z,96390.16
2022-11-08T23:23:28.490Z,96401.19
2022-11-08T23:26:49.217Z,96398.88
2022-11-08T23:30:10.025Z,96403.09
2022-11-08T23:33:12.240Z,96397.03
2022-11-08T23:36:15.859Z,96382.31
2022-11-08T23:39:18.220Z,96396.44
2022-11-08T23:42:38.923Z,96387.00
2022-11-08T23:45:41.024Z,96403.97
2022-11-08T23:48:43.110Z,96405.56
2022-11-08T23:51:45.267Z,96408.66
2022-11-08T23:54:47.311Z,96412.75
2022-11-08T23:57:49.421Z,96425.59
